createdAt,value
2023-05-06T00:02:47.347Z,15.00
2023-05-06T00:07:03.716Z,14.90
2023-05-06T00:11:20.089Z,14.67
2023-05-06T00:15:36.873Z,14.75
2023-05-06T00:19:53.309Z,14.81
2023-05-06T00:24:09.553Z,14.55
2023-05-06T00:28:25.844Z,14.51
2023-05-06T00:32:42.148Z,14.75
2023-05-06T00:36:58.383Z,14.52
2023-05-06T00:41:14.687Z,14.47
2023-05-06T00:45:31.056Z,14.33
2023-05-06T00:49:51.404Z,14.31
2023-05-06T00:54:07.717Z,14.42
2023-05-06T00:58:24.106Z,14.49
2023-05-06T01:02:47.026Z,14.54
2023-05-06T01:07:13.731Z,14.65
2023-05-06T01:11:55.275Z,14.84
2023-05-06T01:16:12.906Z,14.80
2023-05-06T01:20:31.047Z,14.59
2023-05-06T01:24:47.730Z,14.27
2023-05-06T01:29:04.270Z,14.63
2023-05-06T01:33:41.974Z,14.42
2023-05-06T01:38:21.848Z,14.55
2023-05-06T01:42:40.326Z,14.42
2023-05-06T01:46:56.798Z,14.24
2023-05-06T01:51:13.180Z,14.08
2023-05-06T01:55:29.759Z,14.09
2023-05-06T01:59:46.080Z,14.04
2023-05-06T02:04:02.634Z,14.40
2023-05-06T02:08:19.028Z,14.32
2023-05-06T02:12:35.352Z,14.04
2023-05-06T02:16:51.833Z,13.94
2023-05-06T02:21:10.703Z,13.95
2023-05-06T02:25:27.011Z,13.85
2023-05-06T02:29:43.217Z,13.73
2023-05-06T02:33:59.396Z,13.75
2023-05-06T02:38:15.758Z,13.74
2023-05-06T02:42:32.312Z,13.59
2023-05-06T02:46:48.668Z,13.70
2023-05-06T02:51:05.666Z,13.53
2023-05-06T02:55:22.354Z,13.72
2023-05-06T02:59:38.716Z,13.68
2023-05-06T03:03:55.173Z,14.08
2023-05-06T03:08:11.481Z,13.94
2023-05-06T03:12:27.796Z,13.58
2023-05-06T03:16:44.129Z,13.69
2023-05-06T03:21:01.645Z,13.63
2023-05-06T03:25:17.988Z,13.62
2023-05-06T03:29:34.270Z,13.68
2023-05-06T03:33:50.602Z,13.62
2023-05-06T03:38:07.349Z,13.57
2023-05-06T03:42:23.700Z,13.66
2023-05-06T03:46:42.000Z,13.79
2023-05-06T03:50:58.462Z,13.43
2023-05-06T03:55:14.744Z,13.53
2023-05-06T03:59:31.092Z,13.74
2023-05-06T04:03:47.818Z,14.02
2023-05-06T04:08:04.481Z,13.79
2023-05-06T04:12:21.089Z,13.96
2023-05-06T04:16:37.476Z,14.17
2023-05-06T04:20:54.210Z,14.08
2023-05-06T04:25:11.287Z,14.23
2023-05-06T04:29:27.871Z,14.27
2023-05-06T04:33:44.352Z,13.93
2023-05-06T04:38:01.326Z,14.02
2023-05-06T04:42:17.922Z,13.73
2023-05-06T04:46:34.372Z,14.00
2023-05-06T04:50:51.332Z,14.04
2023-05-06T04:55:08.150Z,14.22
2023-05-06T04:59:24.692Z,14.44
2023-05-06T05:03:41.229Z,14.45
2023-05-06T05:07:57.680Z,14.27
2023-05-06T05:12:14.040Z,14.17
2023-05-06T05:16:30.578Z,14.44
2023-05-06T05:20:46.996Z,14.54
2023-05-06T05:25:04.236Z,14.62
2023-05-06T05:29:21.431Z,14.77
2023-05-06T05:33:37.759Z,15.01
2023-05-06T05:37:54.473Z,14.86
2023-05-06T05:42:10.811Z,15.14
2023-05-06T05:46:27.237Z,15.39
2023-05-06T05:50:43.621Z,15.50
2023-05-06T05:54:59.878Z,15.52
2023-05-06T05:59:16.324Z,15.86
2023-05-06T06:03:32.721Z,16.28
2023-05-06T06:07:49.260Z,16.57
2023-05-06T06:12:06.072Z,16.84
2023-05-06T06:16:22.423Z,17.21
2023-05-06T06:20:38.751Z,17.53
2023-05-06T06:24:55.059Z,17.39
2023-05-06T06:29:11.307Z,17.29
2023-05-06T06:33:27.678Z,17.68
2023-05-06T06:37:44.062Z,17.99
2023-05-06T06:42:00.576Z,18.17
2023-05-06T06:46:17.311Z,18.51
2023-05-06T06:50:33.726Z,18.82
2023-05-06T06:54:50.090Z,18.87
2023-05-06T06:59:07.810Z,19.18
2023-05-06T07:03:24.253Z,19.63
2023-05-06T07:07:40.840Z,19.82
2023-05-06T07:11:58.874Z,19.45
2023-05-06T07:16:15.254Z,19.70
2023-05-06T07:20:31.659Z,19.87
2023-05-06T07:24:48.013Z,20.28
2023-05-06T07:29:04.948Z,20.52
2023-05-06T07:33:21.249Z,20.75
2023-05-06T07:37:37.507Z,20.66
2023-05-06T07:41:53.808Z,21.15
2023-05-06T07:46:10.146Z,21.01
2023-05-06T07:50:26.578Z,21.23
2023-05-06T07:54:42.875Z,21.27
2023-05-06T07:59:00.240Z,21.41
2023-05-06T08:03:17.362Z,21.49
2023-05-06T08:09:16.965Z,22.07
2023-05-06T08:13:36.326Z,21.90
2023-05-06T08:17:52.772Z,22.08
2023-05-06T08:22:09.092Z,22.45
2023-05-06T08:26:25.489Z,22.18
2023-05-06T08:30:41.737Z,22.63
2023-05-06T08:34:59.540Z,23.04
2023-05-06T08:39:15.869Z,23.24
2023-05-06T08:43:33.938Z,23.65
2023-05-06T08:47:50.350Z,23.49
2023-05-06T08:52:07.012Z,23.78
2023-05-06T08:56:29.115Z,23.94
2023-05-06T09:00:46.619Z,24.27
2023-05-06T09:05:03.214Z,24.50
2023-05-06T09:09:19.725Z,24.55
2023-05-06T09:13:36.046Z,25.21
2023-05-06T09:17:56.697Z,25.31
2023-05-06T09:22:13.026Z,25.69
2023-05-06T09:26:31.197Z,25.60
2023-05-06T09:30:48.103Z,25.88
2023-05-06T09:35:05.476Z,25.62
2023-05-06T09:39:27.859Z,25.73
2023-05-06T09:43:45.264Z,25.53
2023-05-06T09:48:01.848Z,25.43
2023-05-06T09:52:19.710Z,25.94
2023-05-06T09:56:36.562Z,26.20
2023-05-06T10:00:53.274Z,26.40
2023-05-06T10:05:13.614Z,26.24
2023-05-06T10:09:30.433Z,25.90
2023-05-06T10:13:47.256Z,25.83
2023-05-06T10:18:04.599Z,25.49
2023-05-06T10:22:43.516Z,25.67
2023-05-06T10:27:03.587Z,25.77
2023-05-06T10:31:20.064Z,25.34
2023-05-06T10:35:42.519Z,24.96
2023-05-06T10:40:00.234Z,25.31
2023-05-06T10:44:16.742Z,25.29
2023-05-06T10:48:33.176Z,25.61
2023-05-06T10:52:52.536Z,25.17
2023-05-06T10:57:10.789Z,25.04
2023-05-06T11:01:30.205Z,24.61
2023-05-06T11:05:51.904Z,24.73
2023-05-06T11:10:10.729Z,24.78
2023-05-06T11:14:37.999Z,24.87
2023-05-06T11:18:54.827Z,24.60
2023-05-06T11:23:11.348Z,24.76
2023-05-06T11:27:27.893Z,24.78
2023-05-06T11:31:45.493Z,24.66
2023-05-06T11:36:04.264Z,24.68
2023-05-06T11:40:22.124Z,24.58
2023-05-06T11:44:39.599Z,24.61
2023-05-06T11:48:56.064Z,24.64
2023-05-06T11:53:22.323Z,24.53
2023-05-06T11:57:44.950Z,24.52
2023-05-06T12:02:06.711Z,24.41
2023-05-06T12:06:36.059Z,23.80
2023-05-06T12:10:53.334Z,23.73
2023-05-06T12:15:10.815Z,23.50
2023-05-06T12:19:28.664Z,23.48
2023-05-06T12:24:00.280Z,23.34
2023-05-06T12:28:21.207Z,23.40
2023-05-06T12:32:56.772Z,23.32
2023-05-06T12:37:24.871Z,23.14
2023-05-06T12:41:42.894Z,22.74
2023-05-06T12:46:06.737Z,22.44
2023-05-06T12:50:40.442Z,22.03
2023-05-06T12:54:57.525Z,21.47
2023-05-06T12:59:13.998Z,21.01
2023-05-06T13:03:30.437Z,20.59
2023-05-06T13:07:46.866Z,20.44
2023-05-06T13:12:04.936Z,19.80
2023-05-06T13:16:21.500Z,19.38
2023-05-06T13:20:37.859Z,19.03
2023-05-06T13:24:54.192Z,18.96
2023-05-06T13:29:11.154Z,19.26
2023-05-06T13:33:27.560Z,19.04
2023-05-06T13:37:43.795Z,19.23
2023-05-06T13:42:00.199Z,18.58
2023-05-06T13:46:16.672Z,18.94
2023-05-06T13:50:32.986Z,18.95
2023-05-06T13:54:49.824Z,18.90
2023-05-06T13:59:08.334Z,19.03
2023-05-06T14:03:27.940Z,19.12
2023-05-06T14:07:47.864Z,19.28
2023-05-06T14:12:04.380Z,19.47
2023-05-06T14:16:20.751Z,19.66
2023-05-06T14:20:37.130Z,19.87
2023-05-06T14:24:53.433Z,20.35
2023-05-06T14:29:09.688Z,20.61
2023-05-06T14:33:26.008Z,20.95
2023-05-06T14:37:42.249Z,21.45
2023-05-06T14:41:59.333Z,22.09
2023-05-06T14:46:16.214Z,22.59
2023-05-06T14:50:33.644Z,23.05
2023-05-06T14:54:49.944Z,23.24
2023-05-06T14:59:06.211Z,23.65
2023-05-06T15:03:22.484Z,23.40
2023-05-06T15:07:38.732Z,23.34
2023-05-06T15:11:54.993Z,22.95
2023-05-06T15:16:11.934Z,23.06
2023-05-06T15:20:28.258Z,23.51
2023-05-06T15:24:44.688Z,23.54
2023-05-06T15:29:00.964Z,23.86
2023-05-06T15:33:17.260Z,23.58
2023-05-06T15:37:34.561Z,23.32
2023-05-06T15:41:51.388Z,23.13
2023-05-06T15:46:08.370Z,23.31
2023-05-06T15:50:33.366Z,23.53
2023-05-06T15:54:50.443Z,24.04
2023-05-06T15:59:08.461Z,24.51
2023-05-06T16:03:25.096Z,24.28
2023-05-06T16:07:41.575Z,23.75
2023-05-06T16:11:57.852Z,23.48
2023-05-06T16:16:14.376Z,23.34
2023-05-06T16:20:32.331Z,23.23
2023-05-06T16:24:48.555Z,22.80
2023-05-06T16:29:04.845Z,22.53
2023-05-06T16:33:21.106Z,22.44
2023-05-06T16:37:37.487Z,22.40
2023-05-06T16:41:53.738Z,22.15
2023-05-06T16:46:09.977Z,22.15
2023-05-06T16:50:26.239Z,21.98
2023-05-06T16:54:42.634Z,21.83
2023-05-06T16:58:59.217Z,21.96
2023-05-06T17:03:16.368Z,21.69
2023-05-06T17:07:32.752Z,21.68
2023-05-06T17:11:49.926Z,21.59
2023-05-06T17:16:06.559Z,21.45
2023-05-06T17:20:23.311Z,21.41
2023-05-06T17:24:39.608Z,21.19
2023-05-06T17:28:56.037Z,20.99
2023-05-06T17:33:12.371Z,20.82
2023-05-06T17:37:28.617Z,20.74
2023-05-06T17:41:45.007Z,20.74
2023-05-06T17:46:01.741Z,20.73
2023-05-06T17:50:18.161Z,20.67
2023-05-06T17:54:35.349Z,20.56
2023-05-06T17:58:51.952Z,20.41
2023-05-06T18:03:08.456Z,20.25
2023-05-06T18:07:24.795Z,20.41
2023-05-06T18:11:45.597Z,20.19
2023-05-06T18:16:02.092Z,20.23
2023-05-06T18:20:23.640Z,20.18
2023-05-06T18:24:51.980Z,20.10
2023-05-06T18:29:08.657Z,19.96
2023-05-06T18:33:25.046Z,20.06
2023-05-06T18:37:41.443Z,19.97
2023-05-06T18:41:57.779Z,19.88
2023-05-06T18:46:14.180Z,19.72
2023-05-06T18:50:30.429Z,19.50
2023-05-06T18:54:46.774Z,19.56
2023-05-06T18:59:03.103Z,19.64
2023-05-06T19:03:19.396Z,19.55
2023-05-06T19:07:35.883Z,19.59
2023-05-06T19:11:52.356Z,19.44
2023-05-06T19:16:09.762Z,19.36
2023-05-06T19:20:26.733Z,19.26
2023-05-06T19:24:43.110Z,19.30
2023-05-06T19:29:02.893Z,19.34
2023-05-06T19:33:20.056Z,19.31
2023-05-06T19:37:37.128Z,19.22
2023-05-06T19:41:55.248Z,19.23
2023-05-06T19:46:12.202Z,19.10
2023-05-06T19:50:29.030Z,19.07
2023-05-06T19:54:45.346Z,19.00
2023-05-06T19:59:01.643Z,18.99
2023-05-06T20:03:18.319Z,18.87
2023-05-06T20:07:34.909Z,18.90
2023-05-06T20:11:51.250Z,18.71
2023-05-06T20:16:07.615Z,18.69
2023-05-06T20:20:24.185Z,18.75
2023-05-06T20:24:42.938Z,18.51
2023-05-06T20:28:59.435Z,18.53
2023-05-06T20:33:15.929Z,18.46
2023-05-06T20:37:33.945Z,18.48
2023-05-06T20:41:50.242Z,18.41
2023-05-06T20:46:07.068Z,18.34
2023-05-06T20:50:23.476Z,18.25
2023-05-06T20:54:39.747Z,18.36
2023-05-06T20:58:56.454Z,18.41
2023-05-06T21:03:12.928Z,18.55
2023-05-06T21:07:29.339Z,18.56
2023-05-06T21:11:46.489Z,18.47
2023-05-06T21:16:03.539Z,18.32
2023-05-06T21:20:19.929Z,18.29
2023-05-06T21:24:36.464Z,18.36
2023-05-06T21:28:52.893Z,18.19
2023-05-06T21:33:11.440Z,18.19
2023-05-06T21:37:27.855Z,18.19
2023-05-06T21:41:44.163Z,18.24
2023-05-06T21:46:02.615Z,18.09
2023-05-06T21:50:18.976Z,18.07
2023-05-06T21:54:35.350Z,18.18
2023-05-06T21:58:52.826Z,18.01
2023-05-06T22:03:09.278Z,17.81
2023-05-06T22:07:25.619Z,17.58
2023-05-06T22:11:42.063Z,17.58
2023-05-06T22:15:58.325Z,17.64
2023-05-06T22:20:15.424Z,17.64
2023-05-06T22:24:32.240Z,17.38
2023-05-06T22:28:48.568Z,17.63
2023-05-06T22:33:04.900Z,17.35
2023-05-06T22:37:21.226Z,17.36
2023-05-06T22:41:37.646Z,17.36
2023-05-06T22:45:53.912Z,17.23
2023-05-06T22:50:10.721Z,17.29
2023-05-06T22:54:27.046Z,17.40
2023-05-06T22:58:43.734Z,17.34
2023-05-06T23:03:00.042Z,17.41
2023-05-06T23:07:16.507Z,17.26
2023-05-06T23:11:32.810Z,17.30
2023-05-06T23:15:49.148Z,17.16
2023-05-06T23:20:06.164Z,16.94
2023-05-06T23:24:22.422Z,16.96
2023-05-06T23:28:38.742Z,16.89
2023-05-06T23:32:55.090Z,16.88
2023-05-06T23:37:12.290Z,17.12
2023-05-06T23:41:28.908Z,16.87
2023-05-06T23:45:45.206Z,16.90
2023-05-06T23:50:01.708Z,16.86
2023-05-06T23:54:18.022Z,17.15
2023-05-06T23:58:34.316Z,17.03
